createdAt,value
2018-04-08T00:01:33.524Z,43.01
2018-04-08T00:04:03.319Z,42.90
2018-04-08T00:06:32.284Z,44.06
2018-04-08T00:09:01.269Z,42.93
2018-04-08T00:11:30.611Z,42.90
2018-04-08T00:13:59.524Z,43.25
2018-04-08T00:16:28.430Z,43.20
2018-04-08T00:18:57.692Z,44.04
2018-04-08T00:21:26.585Z,44.92
2018-04-08T00:23:55.484Z,44.30
2018-04-08T00:26:24.707Z,44.34
2018-04-08T00:28:53.609Z,44.57
2018-04-08T00:31:22.508Z,44.40
2018-04-08T00:33:51.870Z,46.06
2018-04-08T00:36:20.948Z,46.03
2018-04-08T00:38:49.852Z,46.74
2018-04-08T00:41:19.080Z,46.32
2018-04-08T00:43:47.970Z,46.88
2018-04-08T00:46:16.920Z,46.57
2018-04-08T00:48:46.440Z,45.79
2018-04-08T00:51:15.321Z,45.68
2018-04-08T00:53:44.338Z,45.81
2018-04-08T00:56:13.559Z,46.13
2018-04-08T00:58:42.473Z,46.14
2018-04-08T01:01:11.428Z,45.69
2018-04-08T01:03:40.900Z,45.74
2018-04-08T01:06:09.806Z,45.88
2018-04-08T01:08:38.850Z,46.18
2018-04-08T01:11:08.156Z,46.91
2018-04-08T01:13:37.079Z,47.23
2018-04-08T01:16:06.026Z,46.78
2018-04-08T01:18:35.429Z,46.97
2018-04-08T01:21:04.328Z,47.34
2018-04-08T01:23:33.304Z,47.58
2018-04-08T01:26:03.267Z,48.20
2018-04-08T01:28:32.281Z,47.84
2018-04-08T01:31:01.160Z,47.85
2018-04-08T01:33:30.420Z,48.18
2018-04-08T01:35:59.316Z,48.55
2018-04-08T01:38:42.668Z,48.35
2018-04-08T01:41:11.915Z,48.62
2018-04-08T01:43:41.003Z,47.98
2018-04-08T01:46:09.964Z,47.99
2018-04-08T01:48:39.278Z,48.73
2018-04-08T01:51:08.177Z,48.15
2018-04-08T01:53:37.066Z,47.26
2018-04-08T01:56:06.338Z,46.24
2018-04-08T01:58:35.881Z,45.67
2018-04-08T02:01:04.798Z,46.94
2018-04-08T02:03:34.124Z,46.59
2018-04-08T02:06:03.608Z,47.45
2018-04-08T02:08:32.544Z,47.23
2018-04-08T02:11:01.958Z,47.31
2018-04-08T02:13:30.876Z,46.88
2018-04-08T02:15:59.800Z,48.37
2018-04-08T02:18:29.050Z,47.63
2018-04-08T02:20:57.974Z,47.28
2018-04-08T02:23:27.008Z,47.81
2018-04-08T02:25:56.509Z,47.98
2018-04-08T02:28:25.712Z,48.55
2018-04-08T02:30:54.948Z,48.87
2018-04-08T02:33:24.669Z,49.34
2018-04-08T02:35:53.966Z,48.78
2018-04-08T02:38:22.890Z,49.40
2018-04-08T02:40:52.143Z,49.58
2018-04-08T02:43:21.018Z,49.37
2018-04-08T02:45:50.065Z,48.97
2018-04-08T02:48:20.130Z,48.81
2018-04-08T02:50:49.061Z,48.96
2018-04-08T02:53:17.964Z,49.12
2018-04-08T02:55:48.124Z,49.48
2018-04-08T02:58:17.216Z,49.74
2018-04-08T03:00:46.413Z,49.78
2018-04-08T03:03:15.790Z,50.03
2018-04-08T03:05:44.857Z,50.14
2018-04-08T03:08:13.760Z,50.64
2018-04-08T03:10:42.985Z,51.05
2018-04-08T03:13:12.333Z,51.15
2018-04-08T03:15:41.453Z,51.06
2018-04-08T03:18:10.708Z,51.07
2018-04-08T03:20:39.820Z,51.13
2018-04-08T03:23:08.755Z,51.13
2018-04-08T03:25:37.633Z,51.16
2018-04-08T03:28:06.521Z,51.59
2018-04-08T03:30:35.844Z,51.13
2018-04-08T03:33:04.804Z,51.04
2018-04-08T03:35:33.721Z,51.04
2018-04-08T03:38:04.033Z,50.90
2018-04-08T03:40:32.976Z,50.89
2018-04-08T03:43:01.880Z,51.26
2018-04-08T03:45:31.170Z,51.18
2018-04-08T03:48:00.074Z,51.43
2018-04-08T03:50:29.009Z,51.73
2018-04-08T03:52:58.332Z,51.97
2018-04-08T03:55:27.224Z,51.97
2018-04-08T03:57:56.190Z,51.72
2018-04-08T04:00:25.567Z,51.86
2018-04-08T04:02:54.580Z,52.25
2018-04-08T04:05:23.577Z,52.19
2018-04-08T04:07:53.885Z,52.19
2018-04-08T04:10:22.879Z,51.43
2018-04-08T04:12:51.896Z,51.29
2018-04-08T04:15:21.276Z,51.15
2018-04-08T04:17:50.216Z,51.23
2018-04-08T04:22:31.815Z,51.12
2018-04-08T04:25:17.353Z,50.95
2018-04-08T04:27:46.670Z,51.87
2018-04-08T04:30:15.596Z,52.35
2018-04-08T04:32:44.840Z,52.71
2018-04-08T04:35:14.284Z,52.89
2018-04-08T04:37:43.297Z,52.97
2018-04-08T04:40:12.135Z,53.24
2018-04-08T04:42:41.576Z,53.01
2018-04-08T04:45:10.436Z,52.71
2018-04-08T04:47:39.414Z,52.33
2018-04-08T04:50:08.607Z,52.03
2018-04-08T04:52:37.551Z,52.06
2018-04-08T04:55:06.419Z,52.07
2018-04-08T04:57:35.669Z,52.17
2018-04-08T05:00:05.292Z,52.15
2018-04-08T05:02:34.207Z,51.94
2018-04-08T05:05:03.108Z,51.89
2018-04-08T05:07:32.039Z,51.57
2018-04-08T05:10:01.000Z,51.56
2018-04-08T05:12:29.950Z,51.72
2018-04-08T05:14:59.081Z,51.85
2018-04-08T05:17:29.398Z,52.13
2018-04-08T05:19:58.320Z,51.92
2018-04-08T05:24:56.470Z,51.53
2018-04-08T05:27:25.400Z,51.09
2018-04-08T05:29:54.334Z,51.21
2018-04-08T05:32:23.622Z,51.11
2018-04-08T05:34:52.557Z,50.51
2018-04-08T05:37:21.484Z,50.21
2018-04-08T05:39:50.858Z,50.57
2018-04-08T05:42:19.778Z,49.81
2018-04-08T05:44:48.721Z,49.66
2018-04-08T05:47:17.747Z,49.78
2018-04-08T05:49:46.731Z,49.76
2018-04-08T05:52:16.186Z,49.43
2018-04-08T05:54:45.140Z,49.22
2018-04-08T05:57:14.142Z,49.13
2018-04-08T05:59:43.055Z,49.29
2018-04-08T06:02:12.080Z,48.87
2018-04-08T06:04:41.577Z,48.83
2018-04-08T06:07:10.541Z,48.65
2018-04-08T06:09:39.472Z,48.39
2018-04-08T06:12:08.741Z,48.28
2018-04-08T06:14:37.709Z,48.63
2018-04-08T06:17:06.741Z,48.73
2018-04-08T06:19:36.213Z,47.84
2018-04-08T06:22:05.768Z,47.89
2018-04-08T06:24:34.797Z,48.14
2018-04-08T06:27:04.150Z,47.53
2018-04-08T06:29:33.039Z,47.50
2018-04-08T06:32:02.722Z,47.58
2018-04-08T06:34:32.205Z,47.33
2018-04-08T06:37:01.295Z,46.94
2018-04-08T06:39:30.280Z,46.70
2018-04-08T06:41:59.717Z,46.65
2018-04-08T06:44:28.624Z,46.69
2018-04-08T06:46:57.593Z,46.63
2018-04-08T06:49:27.139Z,46.35
2018-04-08T06:51:56.325Z,46.55
2018-04-08T06:54:25.286Z,46.32
2018-04-08T06:56:54.709Z,46.25
2018-04-08T06:59:23.731Z,45.92
2018-04-08T07:01:52.706Z,45.64
2018-04-08T07:04:22.173Z,45.65
2018-04-08T07:06:51.085Z,45.42
2018-04-08T07:09:19.987Z,45.40
2018-04-08T07:11:49.052Z,46.48
2018-04-08T07:14:18.080Z,47.19
2018-04-08T07:16:47.485Z,46.80
2018-04-08T07:19:16.413Z,46.42
2018-04-08T07:21:46.216Z,46.24
2018-04-08T07:24:15.181Z,46.40
2018-04-08T07:26:44.307Z,46.70
2018-04-08T07:29:13.612Z,47.11
2018-04-08T07:31:43.312Z,46.59
2018-04-08T07:34:12.225Z,46.54
2018-04-08T07:36:41.605Z,46.28
2018-04-08T07:39:10.529Z,46.40
2018-04-08T07:41:45.118Z,45.73
2018-04-08T07:44:16.319Z,46.00
2018-04-08T07:46:46.962Z,45.99
2018-04-08T07:49:16.001Z,45.54
2018-04-08T07:51:45.466Z,44.79
2018-04-08T07:54:14.510Z,44.87
2018-04-08T07:56:43.629Z,44.69
2018-04-08T07:59:12.517Z,44.53
2018-04-08T08:01:41.616Z,44.54
2018-04-08T08:04:10.915Z,44.52
2018-04-08T08:06:40.236Z,43.85
2018-04-08T08:09:09.328Z,43.56
2018-04-08T08:11:38.396Z,43.16
2018-04-08T08:14:07.874Z,43.08
2018-04-08T08:16:37.336Z,42.84
2018-04-08T08:19:06.336Z,42.39
2018-04-08T08:21:35.342Z,42.03
2018-04-08T08:24:05.379Z,41.66
2018-04-08T08:26:34.357Z,41.65
2018-04-08T08:29:03.758Z,41.40
2018-04-08T08:31:32.766Z,41.64
2018-04-08T08:34:02.519Z,41.07
2018-04-08T08:36:31.483Z,41.16
2018-04-08T08:39:00.591Z,40.73
2018-04-08T08:41:29.929Z,40.12
2018-04-08T08:43:58.989Z,40.10
2018-04-08T08:46:27.892Z,39.76
2018-04-08T08:48:57.277Z,40.00
2018-04-08T08:51:26.337Z,39.68
2018-04-08T08:53:55.412Z,39.30
2018-04-08T08:56:24.763Z,39.08
2018-04-08T08:58:53.716Z,38.63
2018-04-08T09:01:22.677Z,37.88
2018-04-08T09:03:52.247Z,37.76
2018-04-08T09:06:21.149Z,37.23
2018-04-08T09:08:50.276Z,37.42
2018-04-08T09:11:19.536Z,36.96
2018-04-08T09:13:48.531Z,37.16
2018-04-08T09:16:17.589Z,35.82
2018-04-08T09:18:47.076Z,36.36
2018-04-08T09:21:16.345Z,35.41
2018-04-08T09:23:45.908Z,35.24
2018-04-08T09:26:15.372Z,34.77
2018-04-08T09:28:44.349Z,34.47
2018-04-08T09:31:14.100Z,34.05
2018-04-08T09:33:44.686Z,33.94
2018-04-08T09:36:13.671Z,33.59
2018-04-08T09:38:42.600Z,33.41
2018-04-08T09:41:11.948Z,33.09
2018-04-08T09:43:41.489Z,33.36
2018-04-08T09:46:11.249Z,32.61
2018-04-08T09:48:40.276Z,32.13
2018-04-08T09:51:09.758Z,31.85
2018-04-08T09:53:39.238Z,31.72
2018-04-08T09:56:08.225Z,31.36
2018-04-08T09:58:37.236Z,30.98
2018-04-08T10:01:07.045Z,31.03
2018-04-08T10:03:37.041Z,30.92
2018-04-08T10:06:06.372Z,30.84
2018-04-08T10:08:35.347Z,30.17
2018-04-08T10:11:04.481Z,30.40
2018-04-08T10:13:34.263Z,30.68
2018-04-08T10:16:04.624Z,30.63
2018-04-08T10:18:33.852Z,29.56
2018-04-08T10:21:03.373Z,30.35
2018-04-08T10:23:32.372Z,29.58
2018-04-08T10:26:02.177Z,28.94
2018-04-08T10:28:31.653Z,28.19
2018-04-08T10:31:00.604Z,28.33
2018-04-08T10:33:29.509Z,27.72
2018-04-08T10:35:58.441Z,27.12
2018-04-08T10:38:27.413Z,27.39
2018-04-08T10:40:59.140Z,26.96
2018-04-08T10:43:32.059Z,27.12
2018-04-08T10:46:01.738Z,26.68
2018-04-08T10:48:30.644Z,26.09
2018-04-08T10:51:01.710Z,26.15
2018-04-08T10:53:31.625Z,25.25
2018-04-08T10:56:00.784Z,25.14
2018-04-08T10:58:30.408Z,25.28
2018-04-08T11:00:59.435Z,24.32
2018-04-08T11:03:28.548Z,24.66
2018-04-08T11:05:58.131Z,24.22
2018-04-08T11:08:27.348Z,24.04
2018-04-08T11:10:56.412Z,23.94
2018-04-08T11:13:25.579Z,23.38
2018-04-08T11:15:55.175Z,23.43
2018-04-08T11:18:24.534Z,23.38
2018-04-08T11:20:55.092Z,23.02
2018-04-08T11:23:25.910Z,22.52
2018-04-08T11:25:57.730Z,22.33
2018-04-08T11:28:27.817Z,22.03
2018-04-08T11:30:57.918Z,22.12
2018-04-08T11:33:28.100Z,22.39
2018-04-08T11:35:57.732Z,23.80
2018-04-08T11:38:28.024Z,23.20
2018-04-08T11:40:58.171Z,23.46
2018-04-08T11:43:28.477Z,22.47
2018-04-08T11:45:58.236Z,22.87
2018-04-08T11:48:27.528Z,22.29
2018-04-08T11:50:57.170Z,22.13
2018-04-08T11:54:29.210Z,22.20
2018-04-08T11:56:59.102Z,21.83
2018-04-08T11:59:29.489Z,22.99
2018-04-08T12:01:59.737Z,22.05
2018-04-08T12:04:29.325Z,21.14
2018-04-08T12:06:58.832Z,21.26
2018-04-08T12:09:27.891Z,20.54
2018-04-08T12:11:57.889Z,20.02
2018-04-08T12:14:27.167Z,20.41
2018-04-08T12:16:56.697Z,20.82
2018-04-08T12:19:25.692Z,20.08
2018-04-08T12:21:55.193Z,19.97
2018-04-08T12:24:24.604Z,20.08
2018-04-08T12:26:54.549Z,19.38
2018-04-08T12:29:23.971Z,18.40
2018-04-08T12:31:53.049Z,19.38
2018-04-08T12:34:22.412Z,19.07
2018-04-08T12:36:52.952Z,18.44
2018-04-08T12:39:21.903Z,18.24
2018-04-08T12:41:50.888Z,18.16
2018-04-08T12:44:20.249Z,17.97
2018-04-08T12:46:49.314Z,17.71
2018-04-08T12:49:18.335Z,17.71
2018-04-08T12:51:47.944Z,17.38
2018-04-08T12:54:17.006Z,17.96
2018-04-08T12:56:45.922Z,17.25
2018-04-08T12:59:15.222Z,16.79
2018-04-08T13:01:44.140Z,16.87
2018-04-08T13:04:13.451Z,17.26
2018-04-08T13:06:43.183Z,17.79
2018-04-08T13:09:12.098Z,18.02
2018-04-08T13:11:41.638Z,17.39
2018-04-08T13:14:10.698Z,17.50
2018-04-08T13:16:40.005Z,18.65
2018-04-08T13:19:09.427Z,18.60
2018-04-08T13:21:38.460Z,18.64
2018-04-08T13:24:07.365Z,17.98
2018-04-08T13:26:36.636Z,17.80
2018-04-08T13:29:05.560Z,17.39
2018-04-08T13:31:34.457Z,17.50
2018-04-08T13:34:04.722Z,18.50
2018-04-08T13:36:33.627Z,18.55
2018-04-08T13:39:03.736Z,18.65
2018-04-08T13:41:33.034Z,19.05
2018-04-08T13:44:04.270Z,18.52
2018-04-08T13:46:34.205Z,19.00
2018-04-08T13:49:04.328Z,18.54
2018-04-08T13:51:33.219Z,18.63
2018-04-08T13:54:03.983Z,18.35
2018-04-08T13:56:33.196Z,18.64
2018-04-08T13:59:02.597Z,19.20
2018-04-08T14:01:31.586Z,19.10
2018-04-08T14:04:00.852Z,18.78
2018-04-08T14:06:29.887Z,18.47
2018-04-08T14:09:00.098Z,18.52
2018-04-08T14:11:29.319Z,19.10
2018-04-08T14:13:58.230Z,19.09
2018-04-08T14:16:27.138Z,19.81
2018-04-08T14:18:56.455Z,19.63
2018-04-08T14:21:25.340Z,19.38
2018-04-08T14:23:54.240Z,18.81
2018-04-08T14:26:23.161Z,17.80
2018-04-08T14:28:52.585Z,19.12
2018-04-08T14:31:21.938Z,19.03
2018-04-08T14:33:50.941Z,19.18
2018-04-08T14:36:19.934Z,20.08
2018-04-08T14:38:48.824Z,20.09
2018-04-08T14:41:17.779Z,19.33
2018-04-08T14:43:47.148Z,19.52
2018-04-08T14:46:16.141Z,19.76
2018-04-08T14:48:45.063Z,21.34
2018-04-08T14:51:14.105Z,22.59
2018-04-08T14:53:43.094Z,23.08
2018-04-08T14:56:12.500Z,23.09
2018-04-08T14:58:41.845Z,23.09
2018-04-08T15:01:11.234Z,22.67
2018-04-08T15:03:40.593Z,22.78
2018-04-08T15:06:10.579Z,22.84
2018-04-08T15:08:39.781Z,23.47
2018-04-08T15:11:09.117Z,23.12
2018-04-08T15:13:38.220Z,23.21
2018-04-08T15:16:07.263Z,23.24
2018-04-08T15:18:36.591Z,23.57
2018-04-08T15:21:05.748Z,24.19
2018-04-08T15:23:34.770Z,23.79
2018-04-08T15:26:05.655Z,23.27
2018-04-08T15:28:34.587Z,22.37
2018-04-08T15:31:04.286Z,21.58
2018-04-08T15:33:33.209Z,21.18
2018-04-08T15:36:03.172Z,20.96
2018-04-08T15:38:32.076Z,21.57
2018-04-08T15:41:01.616Z,21.20
2018-04-08T15:43:31.205Z,21.32
2018-04-08T15:46:00.142Z,21.08
2018-04-08T15:48:29.127Z,20.67
2018-04-08T15:50:58.039Z,20.59
2018-04-08T15:53:27.558Z,20.61
2018-04-08T15:55:56.908Z,20.93
2018-04-08T15:58:25.831Z,20.87
2018-04-08T16:00:54.732Z,21.44
2018-04-08T16:03:24.045Z,21.38
2018-04-08T16:05:52.980Z,21.32
2018-04-08T16:08:21.961Z,21.72
2018-04-08T16:10:51.312Z,21.55
2018-04-08T16:13:20.319Z,21.85
2018-04-08T16:15:49.304Z,21.58
2018-04-08T16:18:18.673Z,22.02
2018-04-08T16:20:47.633Z,22.41
2018-04-08T16:23:16.603Z,22.92
2018-04-08T16:25:46.459Z,23.01
2018-04-08T16:28:15.404Z,23.32
2018-04-08T16:30:44.516Z,24.16
2018-04-08T16:33:13.784Z,24.31
2018-04-08T16:35:42.800Z,24.52
2018-04-08T16:38:11.703Z,24.94
2018-04-08T16:40:41.268Z,25.25
2018-04-08T16:43:10.195Z,26.25
2018-04-08T16:45:39.176Z,26.53
2018-04-08T16:48:08.504Z,26.48
2018-04-08T16:50:37.406Z,26.83
2018-04-08T16:53:06.431Z,27.19
2018-04-08T16:55:35.700Z,26.97
2018-04-08T16:58:05.200Z,27.11
2018-04-08T17:00:34.256Z,26.09
2018-04-08T17:03:04.669Z,25.81
2018-04-08T17:05:33.548Z,25.79
2018-04-08T17:08:03.601Z,25.70
2018-04-08T17:10:32.510Z,25.90
2018-04-08T17:13:01.502Z,26.17
2018-04-08T17:15:30.420Z,26.44
2018-04-08T17:17:59.417Z,26.26
2018-04-08T17:20:28.863Z,26.69
2018-04-08T17:22:57.832Z,26.64
2018-04-08T17:25:26.828Z,27.42
2018-04-08T17:27:56.473Z,27.32
2018-04-08T17:30:25.388Z,27.41
2018-04-08T17:32:54.522Z,27.63
2018-04-08T17:35:23.758Z,27.62
2018-04-08T17:37:52.742Z,27.87
2018-04-08T17:40:21.693Z,28.33
2018-04-08T17:42:51.154Z,28.39
2018-04-08T17:45:20.251Z,28.62
2018-04-08T17:47:49.266Z,28.71
2018-04-08T17:52:46.253Z,29.11
2018-04-08T17:55:15.201Z,29.16
2018-04-08T17:57:44.463Z,29.11
2018-04-08T18:00:13.815Z,29.10
2018-04-08T18:02:42.920Z,29.43
2018-04-08T18:05:12.351Z,29.56
2018-04-08T18:07:41.876Z,29.73
2018-04-08T18:10:10.797Z,29.92
2018-04-08T18:12:41.484Z,30.77
2018-04-08T18:15:10.683Z,31.12
2018-04-08T18:17:39.775Z,31.32
2018-04-08T18:20:09.418Z,30.32
2018-04-08T18:22:38.376Z,30.18
2018-04-08T18:25:08.167Z,30.36
2018-04-08T18:27:37.606Z,30.54
2018-04-08T18:30:06.517Z,30.68
2018-04-08T18:32:35.972Z,30.90
2018-04-08T18:35:05.354Z,31.18
2018-04-08T18:37:34.582Z,31.51
2018-04-08T18:40:04.557Z,31.61
2018-04-08T18:42:34.275Z,31.66
2018-04-08T18:45:03.810Z,31.97
2018-04-08T18:47:33.132Z,31.62
2018-04-08T18:50:04.869Z,31.79
2018-04-08T18:52:33.828Z,31.98
2018-04-08T18:55:03.060Z,31.85
2018-04-08T18:57:32.425Z,32.03
2018-04-08T19:00:03.552Z,32.07
2018-04-08T19:02:32.517Z,32.16
2018-04-08T19:05:01.843Z,32.23
2018-04-08T19:07:30.899Z,32.46
2018-04-08T19:09:59.842Z,32.80
2018-04-08T19:12:29.220Z,32.89
2018-04-08T19:15:02.463Z,33.16
2018-04-08T19:17:35.481Z,33.34
2018-04-08T19:20:08.353Z,33.57
2018-04-08T19:22:37.609Z,33.69
2018-04-08T19:25:06.534Z,33.76
2018-04-08T19:27:36.049Z,33.78
2018-04-08T19:30:10.096Z,33.75
2018-04-08T19:32:38.896Z,33.85
2018-04-08T19:35:07.880Z,34.07
2018-04-08T19:37:37.448Z,34.15
2018-04-08T19:40:06.447Z,34.07
2018-04-08T19:42:35.693Z,33.93
2018-04-08T19:45:05.039Z,33.96
2018-04-08T19:47:34.209Z,33.91
2018-04-08T19:50:03.885Z,33.96
2018-04-08T19:52:33.169Z,33.83
2018-04-08T19:55:02.212Z,33.88
2018-04-08T19:57:31.157Z,33.77
2018-04-08T20:00:00.025Z,33.84
2018-04-08T20:02:28.988Z,33.84
2018-04-08T20:05:00.933Z,33.93
2018-04-08T20:07:33.245Z,34.03
2018-04-08T20:10:04.489Z,34.21
2018-04-08T20:12:33.598Z,34.39
2018-04-08T20:15:03.286Z,34.55
2018-04-08T20:17:32.169Z,34.44
2018-04-08T20:20:01.265Z,34.54
2018-04-08T20:22:31.393Z,34.49
2018-04-08T20:25:00.282Z,34.63
2018-04-08T20:27:29.230Z,34.79
2018-04-08T20:29:58.473Z,34.82
2018-04-08T20:32:28.597Z,35.14
2018-04-08T20:34:57.946Z,35.03
2018-04-08T20:37:26.880Z,37.38
2018-04-08T20:39:55.825Z,36.08
2018-04-08T20:42:25.020Z,36.08
2018-04-08T20:44:54.570Z,36.05
2018-04-08T20:47:23.465Z,36.28
2018-04-08T20:49:52.844Z,36.39
2018-04-08T20:52:21.760Z,38.04
2018-04-08T20:54:50.863Z,36.97
2018-04-08T20:57:20.047Z,38.57
2018-04-08T20:59:48.929Z,38.22
2018-04-08T21:02:17.800Z,37.42
2018-04-08T21:04:47.340Z,37.32
2018-04-08T21:07:16.245Z,38.75
2018-04-08T21:09:45.117Z,38.53
2018-04-08T21:12:14.321Z,37.86
2018-04-08T21:14:43.263Z,37.98
2018-04-08T21:17:12.177Z,38.46
2018-04-08T21:19:41.632Z,38.03
2018-04-08T21:22:10.716Z,38.14
2018-04-08T21:24:39.889Z,38.20
2018-04-08T21:27:09.277Z,38.48
2018-04-08T21:29:38.185Z,38.63
2018-04-08T21:32:07.089Z,38.58
2018-04-08T21:34:36.472Z,38.71
2018-04-08T21:37:05.365Z,38.57
2018-04-08T21:39:34.376Z,38.64
2018-04-08T21:42:04.446Z,38.97
2018-04-08T21:44:33.464Z,39.89
2018-04-08T21:47:02.417Z,40.78
2018-04-08T21:49:31.769Z,39.35
2018-04-08T21:52:00.730Z,39.09
2018-04-08T21:54:29.653Z,39.02
2018-04-08T21:56:59.005Z,39.11
2018-04-08T21:59:27.883Z,39.19
2018-04-08T22:01:56.812Z,39.39
2018-04-08T22:04:26.105Z,39.67
2018-04-08T22:06:55.733Z,39.61
2018-04-08T22:09:24.697Z,40.89
2018-04-08T22:11:53.908Z,40.45
2018-04-08T22:14:22.892Z,44.33
2018-04-08T22:16:51.791Z,40.96
2018-04-08T22:20:23.632Z,40.84
2018-04-08T22:22:52.534Z,44.86
2018-04-08T22:25:21.848Z,43.53
2018-04-08T22:27:52.086Z,44.42
2018-04-08T22:30:21.192Z,45.31
2018-04-08T22:32:51.286Z,45.15
2018-04-08T22:35:20.204Z,45.08
2018-04-08T22:37:49.129Z,42.55
2018-04-08T22:40:18.456Z,44.46
2018-04-08T22:42:47.468Z,41.08
2018-04-08T22:45:16.593Z,42.12
2018-04-08T22:47:45.978Z,41.48
2018-04-08T22:50:15.030Z,41.37
2018-04-08T22:52:44.192Z,40.91
2018-04-08T22:55:13.448Z,42.34
2018-04-08T22:57:42.551Z,46.17
2018-04-08T23:00:11.848Z,45.68
2018-04-08T23:02:41.280Z,43.67
2018-04-08T23:05:10.163Z,42.73
2018-04-08T23:07:39.045Z,42.30
2018-04-08T23:10:08.117Z,42.67
2018-04-08T23:12:37.260Z,45.17
2018-04-08T23:15:06.943Z,45.85
2018-04-08T23:17:35.841Z,44.75
2018-04-08T23:20:05.672Z,44.01
2018-04-08T23:22:34.586Z,43.04
2018-04-08T23:25:03.560Z,45.10
2018-04-08T23:27:33.836Z,45.31
2018-04-08T23:30:04.034Z,43.18
2018-04-08T23:32:34.457Z,42.77
2018-04-08T23:35:04.142Z,44.05
2018-04-08T23:37:33.105Z,44.59
2018-04-08T23:40:03.274Z,44.05
2018-04-08T23:42:36.224Z,43.26
2018-04-08T23:45:06.041Z,43.09
2018-04-08T23:47:35.614Z,43.13
2018-04-08T23:50:06.956Z,43.32
2018-04-08T23:52:36.868Z,45.41
2018-04-08T23:55:05.841Z,46.67
2018-04-08T23:57:35.279Z,46.79
